Главная страница
METAR-TAF:

METAR-TAF

Аэропорты :

Дамаск, Сирия

широта: 33-25N, долгота: 036-31E, высота над уровнем моря: 608 м

Текущие метеонаблюдения

Эта сводка был подготовлена 22 минут назад, в 07:00 UTC
Ветер 12 Узел от западный-юго-западный
Температура 27°C
Влажность 39%
Давление 1012 hPa
Видимость 10 км и более
Отдельные облака на высоте 3000 фута

METAR: OSDI 170700Z 24012KT 9999 SCT030 27/12 Q1012

Время: 10:22 (07:22 UTC)

Прогноз

Прогноз действительный с 17-го 06 UTC до 18-го 12 UTC
Ветер 12 Узел от юго-западный
Видимость 10 км и более
Нет облачности ниже 1500 м, и нет кучево-дождевой облачности
временами
С 17-го 10 UTC до 17-го 18 UTC
Ветер 15 Узел от западный с порывами до 25 Узел
Видимость 10 км и более
небольшая облачность на высоте 3000 фута

TAF: OSDI 1706/1812 22012KT CAVOK TEMPO 1710/1718 26015G25KT 9999 FEW030

Метеонаблюдения и прогнозы для более 4000 аэропортов (сводки METAR и TAF).

Имеющиеся станции представлены на карте желтыми и красными точками.

Чтобы увидеть название станции, наведите на нее мышь.

Затем щелкните, чтобы увидеть метеонаблюдения и метеопрогнозы.

Управление картой: чтобы увеличить масштаб, щелкните зеленые кнопки с черным крестиком; чтобы уменьшить масштаб, щелкните зеленую кнопку с тире; для просмотра соседних карт щелкайте зеленые стрелки.


METAR-TAF: